sensor_id;sensor_type;location;lat;lon;timestamp;P1;durP1;ratioP1;P2;durP2;ratioP2
13687;SDS011;6916;51.504;7.416;2023-08-12T00:09:32;19.90;;;17.15;;
13687;SDS011;6916;51.504;7.416;2023-08-12T00:19:35;22.33;;;15.82;;
13687;SDS011;6916;51.504;7.416;2023-08-12T00:29:40;21.48;;;16.65;;
13687;SDS011;6916;51.504;7.416;2023-08-12T00:39:43;27.17;;;19.17;;
13687;SDS011;6916;51.504;7.416;2023-08-12T00:49:45;25.83;;;20.10;;
13687;SDS011;6916;51.504;7.416;2023-08-12T00:59:48;21.95;;;16.60;;
13687;SDS011;6916;51.504;7.416;2023-08-12T01:09:51;19.20;;;15.18;;
13687;SDS011;6916;51.504;7.416;2023-08-12T01:30:36;19.73;;;17.10;;
13687;SDS011;6916;51.504;7.416;2023-08-12T01:40:44;24.52;;;19.45;;
13687;SDS011;6916;51.504;7.416;2023-08-12T01:50:47;25.80;;;20.50;;
13687;SDS011;6916;51.504;7.416;2023-08-12T02:00:50;30.25;;;21.80;;
13687;SDS011;6916;51.504;7.416;2023-08-12T02:10:54;25.98;;;16.67;;
13687;SDS011;6916;51.504;7.416;2023-08-12T02:20:57;19.55;;;14.90;;
13687;SDS011;6916;51.504;7.416;2023-08-12T02:30:59;16.00;;;13.30;;
13687;SDS011;6916;51.504;7.416;2023-08-12T02:41:03;18.42;;;14.35;;
13687;SDS011;6916;51.504;7.416;2023-08-12T02:51:06;18.65;;;14.40;;
13687;SDS011;6916;51.504;7.416;2023-08-12T03:01:08;17.83;;;15.80;;
13687;SDS011;6916;51.504;7.416;2023-08-12T03:11:11;18.80;;;15.63;;
13687;SDS011;6916;51.504;7.416;2023-08-12T03:21:13;17.95;;;15.23;;
13687;SDS011;6916;51.504;7.416;2023-08-12T03:31:17;17.15;;;14.52;;
13687;SDS011;6916;51.504;7.416;2023-08-12T03:41:20;19.80;;;13.77;;
13687;SDS011;6916;51.504;7.416;2023-08-12T03:51:23;18.85;;;15.82;;
13687;SDS011;6916;51.504;7.416;2023-08-12T04:01:27;19.05;;;15.57;;
13687;SDS011;6916;51.504;7.416;2023-08-12T04:11:30;19.98;;;16.17;;
13687;SDS011;6916;51.504;7.416;2023-08-12T04:21:33;15.55;;;13.93;;
13687;SDS011;6916;51.504;7.416;2023-08-12T04:31:36;17.83;;;14.30;;
13687;SDS011;6916;51.504;7.416;2023-08-12T04:41:39;16.73;;;13.30;;
13687;SDS011;6916;51.504;7.416;2023-08-12T04:51:42;17.85;;;13.90;;
13687;SDS011;6916;51.504;7.416;2023-08-12T05:01:45;17.58;;;14.52;;
13687;SDS011;6916;51.504;7.416;2023-08-12T05:12:06;13.95;;;12.20;;
13687;SDS011;6916;51.504;7.416;2023-08-12T05:22:10;16.20;;;12.18;;
13687;SDS011;6916;51.504;7.416;2023-08-12T05:32:13;16.45;;;13.68;;
13687;SDS011;6916;51.504;7.416;2023-08-12T05:42:16;13.25;;;11.85;;
13687;SDS011;6916;51.504;7.416;2023-08-12T05:52:18;13.65;;;12.23;;
13687;SDS011;6916;51.504;7.416;2023-08-12T06:02:21;12.05;;;10.85;;
13687;SDS011;6916;51.504;7.416;2023-08-12T06:12:24;10.70;;;9.27;;
13687;SDS011;6916;51.504;7.416;2023-08-12T06:22:26;8.43;;;7.60;;
13687;SDS011;6916;51.504;7.416;2023-08-12T06:32:29;7.28;;;5.90;;
13687;SDS011;6916;51.504;7.416;2023-08-12T06:42:31;5.90;;;5.10;;
13687;SDS011;6916;51.504;7.416;2023-08-12T06:52:34;6.35;;;5.35;;
13687;SDS011;6916;51.504;7.416;2023-08-12T07:02:36;6.47;;;4.00;;
13687;SDS011;6916;51.504;7.416;2023-08-12T07:12:39;4.90;;;3.78;;
13687;SDS011;6916;51.504;7.416;2023-08-12T07:22:42;9.50;;;4.13;;
13687;SDS011;6916;51.504;7.416;2023-08-12T07:32:44;4.43;;;3.65;;
13687;SDS011;6916;51.504;7.416;2023-08-12T07:42:47;4.20;;;3.80;;
13687;SDS011;6916;51.504;7.416;2023-08-12T07:52:50;7.72;;;5.63;;
13687;SDS011;6916;51.504;7.416;2023-08-12T08:02:54;7.00;;;3.63;;
13687;SDS011;6916;51.504;7.416;2023-08-12T08:12:56;3.00;;;2.72;;
13687;SDS011;6916;51.504;7.416;2023-08-12T08:22:59;2.85;;;2.47;;
13687;SDS011;6916;51.504;7.416;2023-08-12T08:33:02;2.35;;;2.15;;
13687;SDS011;6916;51.504;7.416;2023-08-12T08:43:04;2.38;;;1.60;;
13687;SDS011;6916;51.504;7.416;2023-08-12T08:53:09;3.67;;;1.98;;
13687;SDS011;6916;51.504;7.416;2023-08-12T09:03:12;1.90;;;1.80;;
13687;SDS011;6916;51.504;7.416;2023-08-12T09:13:15;2.95;;;1.88;;
13687;SDS011;6916;51.504;7.416;2023-08-12T09:23:21;2.67;;;2.42;;
13687;SDS011;6916;51.504;7.416;2023-08-12T09:33:24;1.77;;;1.67;;
13687;SDS011;6916;51.504;7.416;2023-08-12T09:43:30;3.42;;;1.75;;
13687;SDS011;6916;51.504;7.416;2023-08-12T09:53:34;1.88;;;1.67;;
13687;SDS011;6916;51.504;7.416;2023-08-12T10:03:37;2.83;;;1.38;;
13687;SDS011;6916;51.504;7.416;2023-08-12T10:13:40;1.50;;;1.40;;
13687;SDS011;6916;51.504;7.416;2023-08-12T10:23:43;1.27;;;1.17;;
13687;SDS011;6916;51.504;7.416;2023-08-12T10:33:49;2.05;;;1.65;;
13687;SDS011;6916;51.504;7.416;2023-08-12T10:43:52;1.90;;;0.93;;
13687;SDS011;6916;51.504;7.416;2023-08-12T10:54:09;1.02;;;0.68;;
13687;SDS011;6916;51.504;7.416;2023-08-12T11:04:18;1.05;;;0.43;;
13687;SDS011;6916;51.504;7.416;2023-08-12T11:14:21;0.40;;;0.40;;
13687;SDS011;6916;51.504;7.416;2023-08-12T11:24:26;2.47;;;0.65;;
13687;SDS011;6916;51.504;7.416;2023-08-12T11:34:28;1.98;;;0.85;;
13687;SDS011;6916;51.504;7.416;2023-08-12T11:44:32;0.68;;;0.47;;
13687;SDS011;6916;51.504;7.416;2023-08-12T11:54:34;2.53;;;1.02;;
13687;SDS011;6916;51.504;7.416;2023-08-12T12:04:40;1.88;;;0.60;;
13687;SDS011;6916;51.504;7.416;2023-08-12T12:14:50;2.88;;;1.70;;
13687;SDS011;6916;51.504;7.416;2023-08-12T12:24:57;1.35;;;0.77;;
13687;SDS011;6916;51.504;7.416;2023-08-12T12:35:00;0.70;;;0.35;;
13687;SDS011;6916;51.504;7.416;2023-08-12T12:45:05;0.82;;;0.50;;
13687;SDS011;6916;51.504;7.416;2023-08-12T12:55:08;0.60;;;0.60;;
13687;SDS011;6916;51.504;7.416;2023-08-12T13:05:10;1.30;;;0.40;;
13687;SDS011;6916;51.504;7.416;2023-08-12T13:15:13;1.02;;;0.98;;
13687;SDS011;6916;51.504;7.416;2023-08-12T13:25:15;2.10;;;0.93;;
13687;SDS011;6916;51.504;7.416;2023-08-12T13:35:18;1.20;;;1.20;;
13687;SDS011;6916;51.504;7.416;2023-08-12T13:45:21;4.78;;;3.35;;
13687;SDS011;6916;51.504;7.416;2023-08-12T13:55:24;3.03;;;2.10;;
13687;SDS011;6916;51.504;7.416;2023-08-12T14:05:28;3.08;;;2.88;;
13687;SDS011;6916;51.504;7.416;2023-08-12T14:15:30;3.38;;;3.17;;
13687;SDS011;6916;51.504;7.416;2023-08-12T14:25:35;4.50;;;4.10;;
13687;SDS011;6916;51.504;7.416;2023-08-12T14:35:38;5.97;;;5.47;;
13687;SDS011;6916;51.504;7.416;2023-08-12T14:45:40;7.65;;;6.95;;
13687;SDS011;6916;51.504;7.416;2023-08-12T14:55:43;8.00;;;6.30;;
13687;SDS011;6916;51.504;7.416;2023-08-12T15:05:48;6.93;;;6.20;;
13687;SDS011;6916;51.504;7.416;2023-08-12T15:15:50;5.78;;;5.32;;
13687;SDS011;6916;51.504;7.416;2023-08-12T15:25:53;5.30;;;4.90;;
13687;SDS011;6916;51.504;7.416;2023-08-12T15:35:56;6.00;;;5.50;;
13687;SDS011;6916;51.504;7.416;2023-08-12T15:46:00;5.10;;;4.70;;
13687;SDS011;6916;51.504;7.416;2023-08-12T15:56:02;6.80;;;6.25;;
13687;SDS011;6916;51.504;7.416;2023-08-12T16:06:06;12.00;;;10.85;;
13687;SDS011;6916;51.504;7.416;2023-08-12T16:16:09;6.68;;;6.07;;
13687;SDS011;6916;51.504;7.416;2023-08-12T16:26:12;11.15;;;9.05;;
13687;SDS011;6916;51.504;7.416;2023-08-12T16:36:15;2.92;;;2.38;;
13687;SDS011;6916;51.504;7.416;2023-08-12T16:46:17;3.83;;;3.33;;
13687;SDS011;6916;51.504;7.416;2023-08-12T16:56:20;2.70;;;1.63;;
13687;SDS011;6916;51.504;7.416;2023-08-12T17:06:22;2.67;;;2.03;;
13687;SDS011;6916;51.504;7.416;2023-08-12T17:16:26;2.80;;;2.03;;
13687;SDS011;6916;51.504;7.416;2023-08-12T17:26:31;4.15;;;1.52;;
13687;SDS011;6916;51.504;7.416;2023-08-12T17:36:33;4.25;;;1.52;;
13687;SDS011;6916;51.504;7.416;2023-08-12T17:46:36;7.97;;;3.00;;
13687;SDS011;6916;51.504;7.416;2023-08-12T17:56:39;3.55;;;1.55;;
13687;SDS011;6916;51.504;7.416;2023-08-12T18:06:42;6.00;;;2.30;;
13687;SDS011;6916;51.504;7.416;2023-08-12T18:16:45;6.15;;;2.42;;
13687;SDS011;6916;51.504;7.416;2023-08-12T18:26:48;5.00;;;2.08;;
13687;SDS011;6916;51.504;7.416;2023-08-12T18:36:51;3.55;;;1.55;;
13687;SDS011;6916;51.504;7.416;2023-08-12T19:10:15;5.15;;;2.35;;
13687;SDS011;6916;51.504;7.416;2023-08-12T19:20:38;4.18;;;2.83;;
13687;SDS011;6916;51.504;7.416;2023-08-12T19:31:22;4.90;;;2.47;;
13687;SDS011;6916;51.504;7.416;2023-08-12T19:41:28;6.50;;;2.80;;
13687;SDS011;6916;51.504;7.416;2023-08-12T19:51:32;8.80;;;3.25;;
13687;SDS011;6916;51.504;7.416;2023-08-12T20:01:34;5.90;;;3.20;;
13687;SDS011;6916;51.504;7.416;2023-08-12T20:11:37;4.63;;;2.90;;
13687;SDS011;6916;51.504;7.416;2023-08-12T20:21:40;4.63;;;2.92;;
13687;SDS011;6916;51.504;7.416;2023-08-12T20:31:42;6.72;;;3.30;;
13687;SDS011;6916;51.504;7.416;2023-08-12T20:41:47;6.82;;;3.70;;
13687;SDS011;6916;51.504;7.416;2023-08-12T20:52:04;4.88;;;3.10;;
13687;SDS011;6916;51.504;7.416;2023-08-12T21:02:07;3.72;;;2.38;;
13687;SDS011;6916;51.504;7.416;2023-08-12T21:12:09;8.95;;;2.13;;
13687;SDS011;6916;51.504;7.416;2023-08-12T21:22:14;3.45;;;2.20;;
13687;SDS011;6916;51.504;7.416;2023-08-12T21:32:17;3.72;;;1.85;;
13687;SDS011;6916;51.504;7.416;2023-08-12T21:42:24;5.05;;;2.10;;
13687;SDS011;6916;51.504;7.416;2023-08-12T21:52:27;3.17;;;1.92;;
13687;SDS011;6916;51.504;7.416;2023-08-12T22:02:30;4.22;;;2.10;;
13687;SDS011;6916;51.504;7.416;2023-08-12T22:12:32;2.72;;;1.67;;
13687;SDS011;6916;51.504;7.416;2023-08-12T22:22:35;6.32;;;2.03;;
13687;SDS011;6916;51.504;7.416;2023-08-12T22:32:38;7.55;;;2.50;;
13687;SDS011;6916;51.504;7.416;2023-08-12T22:42:41;4.13;;;2.47;;
13687;SDS011;6916;51.504;7.416;2023-08-12T22:52:43;6.40;;;2.55;;
13687;SDS011;6916;51.504;7.416;2023-08-12T23:02:46;3.13;;;2.38;;
13687;SDS011;6916;51.504;7.416;2023-08-12T23:12:49;7.20;;;2.40;;
13687;SDS011;6916;51.504;7.416;2023-08-12T23:22:52;6.35;;;2.33;;
13687;SDS011;6916;51.504;7.416;2023-08-12T23:32:54;6.38;;;2.50;;
13687;SDS011;6916;51.504;7.416;2023-08-12T23:42:59;5.18;;;2.13;;
13687;SDS011;6916;51.504;7.416;2023-08-12T23:53:02;5.63;;;2.20;;
